Time;durP1;ratioP1;P1;durP2;ratioP2;P2;SDS_P1;SDS_P2;PMS_P1;PMS_P2;Temp;Humidity;BMP_temperature;BMP_pressure;BME280_temperature;BME280_humidity;BME280_pressure;Samples;Min_cycle;Max_cycle;Signal;HPM_P1;HPM_P2
2023/03/02 00:02:21;;;;;;;9.25;4.95;;;5.90;99.90;;;;;;4970711;28;20034;-74
2023/03/02 00:04:55;;;;;;;7.80;5.13;;;5.70;99.90;;;;;;4975098;28;20035;-74
2023/03/02 00:07:30;;;;;;;9.77;5.55;;;5.80;99.90;;;;;;4969569;28;20141;-75
2023/03/02 00:09:57;;;;;;;8.68;5.82;;;5.90;99.90;;;;;;4982003;28;20035;-74
2023/03/02 00:12:23;;;;;;;10.88;5.53;;;5.90;99.90;;;;;;4976090;28;20031;-74
2023/03/02 00:14:49;;;;;;;7.22;4.35;;;5.90;99.90;;;;;;4976701;28;20509;-76
2023/03/02 00:17:15;;;;;;;9.45;6.03;;;5.80;99.90;;;;;;4972961;28;20081;-73
2023/03/02 00:19:40;;;;;;;10.07;6.18;;;5.90;99.90;;;;;;4979208;28;20035;-73
2023/03/02 00:22:06;;;;;;;11.20;5.70;;;5.80;99.90;;;;;;4983902;28;20023;-73
2023/03/02 00:24:32;;;;;;;9.65;6.28;;;5.80;99.90;;;;;;4979931;28;20034;-73
2023/03/02 00:26:58;;;;;;;10.43;5.95;;;5.60;99.90;;;;;;4973245;28;20070;-73
2023/03/02 00:29:23;;;;;;;9.18;5.75;;;5.70;99.90;;;;;;4980161;28;20034;-73
2023/03/02 00:31:49;;;;;;;10.60;5.82;;;5.80;99.90;;;;;;4981303;28;20046;-73
2023/03/02 00:34:15;;;;;;;9.95;5.75;;;5.90;99.90;;;;;;4974851;28;20038;-73
2023/03/02 00:36:41;;;;;;;9.60;5.72;;;5.90;99.90;;;;;;4980097;28;20053;-73
2023/03/02 00:39:07;;;;;;;10.23;6.30;;;6.00;99.90;;;;;;4979601;28;20030;-73
2023/03/02 00:41:32;;;;;;;9.05;4.63;;;6.00;99.90;;;;;;4982382;28;20042;-73
2023/03/02 00:43:58;;;;;;;9.73;5.07;;;5.80;99.90;;;;;;4971545;28;20511;-73
2023/03/02 00:46:25;;;;;;;8.25;4.82;;;5.80;99.90;;;;;;4978109;28;20623;-74
2023/03/02 00:48:51;;;;;;;11.30;6.30;;;5.80;99.90;;;;;;4983253;28;20385;-73
2023/03/02 00:51:17;;;;;;;11.07;6.70;;;5.80;99.90;;;;;;4978929;28;20125;-73
2023/03/02 00:53:43;;;;;;;8.00;5.15;;;5.90;99.90;;;;;;4971265;28;20053;-73
2023/03/02 00:56:09;;;;;;;8.68;5.93;;;5.90;99.90;;;;;;4984351;28;20520;-73
2023/03/02 00:58:36;;;;;;;7.63;4.97;;;5.90;99.90;;;;;;4980208;28;20039;-73
2023/03/02 01:01:10;;;;;;;6.95;3.22;;;6.00;99.90;;;;;;4976636;28;20038;-74
2023/03/02 01:03:36;;;;;;;5.93;2.67;;;6.00;99.90;;;;;;4975796;28;20031;-74
2023/03/02 01:06:02;;;;;;;3.92;1.75;;;6.20;99.90;;;;;;4983385;28;20053;-73
2023/03/02 01:08:28;;;;;;;4.90;1.80;;;6.20;99.90;;;;;;4984728;28;20034;-73
2023/03/02 01:10:53;;;;;;;7.88;4.60;;;6.20;99.90;;;;;;4971484;28;20381;-74
2023/03/02 01:13:19;;;;;;;14.35;9.07;;;6.10;99.90;;;;;;4976439;28;20155;-73
2023/03/02 01:15:45;;;;;;;15.15;9.40;;;6.00;99.90;;;;;;4977336;28;20030;-73
2023/03/02 01:18:11;;;;;;;22.23;12.48;;;5.80;99.90;;;;;;4985107;28;20571;-74
2023/03/02 01:20:37;;;;;;;17.40;9.48;;;5.70;99.90;;;;;;4977145;28;20089;-73
2023/03/02 01:23:02;;;;;;;17.60;11.07;;;5.70;99.90;;;;;;4970828;28;20049;-73
2023/03/02 01:25:28;;;;;;;16.27;10.25;;;5.80;99.90;;;;;;4978355;28;20031;-74
2023/03/02 01:27:54;;;;;;;23.63;14.50;;;5.90;99.90;;;;;;4976662;28;20505;-73
2023/03/02 01:30:19;;;;;;;22.10;13.93;;;5.90;99.90;;;;;;4976606;28;20041;-73
2023/03/02 01:32:45;;;;;;;20.40;12.38;;;5.80;99.90;;;;;;4979395;28;20026;-73
2023/03/02 01:35:11;;;;;;;20.80;13.60;;;5.50;99.90;;;;;;4973517;28;20118;-73
2023/03/02 01:37:37;;;;;;;20.02;11.70;;;5.40;99.90;;;;;;4976210;28;20387;-73
2023/03/02 01:40:05;;;;;;;21.10;12.60;;;5.30;99.90;;;;;;4979052;28;20042;-74
2023/03/02 01:42:37;;;;;;;17.58;10.38;;;5.30;99.90;;;;;;4977705;28;20077;-73
2023/03/02 01:45:03;;;;;;;17.50;9.80;;;5.40;99.90;;;;;;4975593;28;20484;-73
2023/03/02 01:47:38;;;;;;;13.63;8.85;;;5.50;99.90;;;;;;4975384;28;20070;-74
2023/03/02 01:50:10;;;;;;;;;;;5.50;99.90;;;;;;4970077;28;20038;-73
2023/03/02 01:52:37;;;;;;;13.32;7.90;;;5.60;99.90;;;;;;4977428;28;19955;-74
2023/03/02 01:55:05;;;;;;;12.63;8.15;;;5.70;99.90;;;;;;4984215;28;20030;-73
2023/03/02 01:57:42;;;;;;;16.27;9.38;;;5.70;99.90;;;;;;4973895;28;20049;-73
2023/03/02 02:00:14;;;;;;;12.57;7.80;;;5.60;99.90;;;;;;4972383;28;20472;-74
2023/03/02 02:02:40;;;;;;;12.45;7.63;;;5.70;99.90;;;;;;4976778;28;20057;-73
2023/03/02 02:05:13;;;;;;;11.90;7.82;;;5.60;99.90;;;;;;4980066;28;20034;-73
2023/03/02 02:07:39;;;;;;;11.07;6.95;;;5.50;99.90;;;;;;4978246;28;20034;-73
2023/03/02 02:10:06;;;;;;;11.07;7.90;;;5.60;99.90;;;;;;4972592;28;20476;-73
2023/03/02 02:12:33;;;;;;;11.68;6.47;;;5.60;99.90;;;;;;4971597;28;20038;-73
2023/03/02 02:15:00;;;;;;;11.70;6.40;;;5.60;99.90;;;;;;4970745;28;20038;-73
2023/03/02 02:17:28;;;;;;;12.38;6.63;;;5.70;99.90;;;;;;4977757;28;20038;-73
2023/03/02 02:20:27;;;;;;;10.00;5.85;;;5.80;99.90;;;;;;4974270;28;20042;-73
2023/03/02 02:23:07;;;;;;;10.00;6.07;;;5.90;99.90;;;;;;4971543;28;20050;-73
2023/03/02 02:25:41;;;;;;;6.85;4.38;;;5.90;99.90;;;;;;4973003;28;20041;-74
2023/03/02 02:28:12;;;;;;;;;;;6.00;99.90;;;;;;4977966;28;20034;-74
2023/03/02 02:30:39;;;;;;;7.55;5.00;;;6.10;99.90;;;;;;4975176;28;19910;-73
2023/03/02 02:33:05;;;;;;;7.50;5.10;;;6.10;99.90;;;;;;4978580;28;20101;-74
2023/03/02 02:35:33;;;;;;;9.57;5.18;;;6.00;99.90;;;;;;4980982;28;20034;-73
2023/03/02 02:38:05;;;;;;;8.93;4.82;;;5.90;99.90;;;;;;4982667;28;20045;-75
2023/03/02 02:40:56;;;;;;;8.27;4.82;;;5.90;99.90;;;;;;4979239;28;20097;-73
2023/03/02 02:43:22;;;;;;;7.82;4.72;;;5.90;99.90;;;;;;4971937;28;20081;-73
2023/03/02 02:45:52;;;;;;;8.10;4.72;;;6.00;99.90;;;;;;4976119;28;20026;-73
2023/03/02 02:48:21;;;;;;;6.85;3.95;;;6.00;99.90;;;;;;4977550;28;20038;-73
2023/03/02 02:50:48;;;;;;;8.98;3.78;;;6.00;99.90;;;;;;4980201;28;20019;-74
2023/03/02 02:53:21;;;;;;;4.97;3.28;;;5.90;99.90;;;;;;4975255;28;20035;-73
2023/03/02 02:55:50;;;;;;;4.72;2.60;;;5.80;99.90;;;;;;4974586;28;20042;-73
2023/03/02 02:58:55;;;;;;;4.93;2.90;;;5.80;99.90;;;;;;4979231;28;20130;-73
2023/03/02 03:01:24;;;;;;;6.53;3.45;;;5.80;99.90;;;;;;4946478;29;20129;-73
2023/03/02 03:03:53;;;;;;;7.35;3.58;;;5.90;99.90;;;;;;4946678;29;20039;-73
2023/03/02 03:06:26;;;;;;;6.93;3.83;;;6.00;99.90;;;;;;4958989;28;20438;-73
2023/03/02 03:08:55;;;;;;;5.07;2.58;;;6.00;99.90;;;;;;4969179;28;20038;-75
2023/03/02 03:11:25;;;;;;;4.93;2.83;;;5.70;99.90;;;;;;4971621;28;20374;-73
2023/03/02 03:14:13;;;;;;;4.90;2.80;;;5.60;99.90;;;;;;4975683;28;20039;-74
2023/03/02 03:16:41;;;;;;;6.38;3.33;;;5.50;99.90;;;;;;4972951;28;20104;-74
2023/03/02 03:19:25;;;;;;;6.00;2.50;;;5.60;99.90;;;;;;4978845;28;20081;-74
2023/03/02 03:21:53;;;;;;;5.90;2.30;;;5.70;99.90;;;;;;4977781;28;20081;-74
2023/03/02 03:24:20;;;;;;;5.20;2.33;;;5.80;99.90;;;;;;4976092;28;20165;-73
2023/03/02 03:26:46;;;;;;;7.15;2.20;;;5.90;99.90;;;;;;4977358;28;20042;-73
2023/03/02 03:29:13;;;;;;;3.28;1.75;;;6.00;99.90;;;;;;4974984;28;20391;-73
2023/03/02 03:31:39;;;;;;;4.30;2.50;;;6.00;99.90;;;;;;4975478;28;20165;-73
2023/03/02 03:34:05;;;;;;;4.38;2.60;;;6.00;99.90;;;;;;4987165;28;20100;-73
2023/03/02 03:36:32;;;;;;;5.10;3.03;;;6.10;99.90;;;;;;4984694;28;20174;-73
2023/03/02 03:38:58;;;;;;;6.72;3.65;;;6.20;99.90;;;;;;4984965;28;20062;-74
2023/03/02 03:41:23;;;;;;;7.40;4.43;;;6.20;99.90;;;;;;4983661;28;20026;-73
2023/03/02 03:43:49;;;;;;;7.18;4.07;;;6.10;99.90;;;;;;4979657;28;20049;-73
2023/03/02 03:46:16;;;;;;;5.47;2.80;;;6.10;99.90;;;;;;4981384;28;20046;-74
2023/03/02 03:48:42;;;;;;;4.90;2.97;;;6.00;99.90;;;;;;4974448;28;20031;-74
2023/03/02 03:51:07;;;;;;;4.97;2.42;;;5.90;99.90;;;;;;4974549;28;20105;-73
2023/03/02 03:53:33;;;;;;;4.13;1.75;;;5.90;99.90;;;;;;4976791;28;20042;-75
2023/03/02 03:55:59;;;;;;;4.93;2.15;;;5.80;99.90;;;;;;4983583;28;20138;-74
2023/03/02 03:58:26;;;;;;;4.00;2.17;;;5.90;99.90;;;;;;4973817;28;20166;-73
2023/03/02 04:00:52;;;;;;;4.68;2.50;;;6.00;99.90;;;;;;4984737;28;20385;-74
2023/03/02 04:03:19;;;;;;;6.40;3.10;;;6.00;99.90;;;;;;4979075;28;20417;-74
2023/03/02 04:05:46;;;;;;;5.95;3.05;;;6.00;99.90;;;;;;4972788;28;20049;-75
2023/03/02 04:08:12;;;;;;;5.05;3.17;;;6.00;99.90;;;;;;4977750;28;20033;-79
2023/03/02 04:10:37;;;;;;;8.73;3.58;;;6.00;99.90;;;;;;4974614;28;20031;-77
2023/03/02 04:13:03;;;;;;;6.38;2.72;;;6.10;99.90;;;;;;4971224;28;20464;-75
2023/03/02 04:15:29;;;;;;;4.80;2.53;;;6.10;99.90;;;;;;4972852;28;20154;-76
2023/03/02 04:17:54;;;;;;;4.93;2.50;;;5.90;99.90;;;;;;4977499;28;20022;-75
2023/03/02 04:20:21;;;;;;;4.53;2.00;;;5.80;99.90;;;;;;4973554;28;20397;-76
2023/03/02 04:22:50;;;;;;;5.20;1.73;;;5.90;99.90;;;;;;4968570;28;20042;-75
2023/03/02 04:25:20;;;;;;;4.05;1.92;;;6.00;99.90;;;;;;4967027;28;20062;-75
2023/03/02 04:27:47;;;;;;;2.50;1.58;;;5.90;99.90;;;;;;4976595;28;20069;-74
2023/03/02 04:30:14;;;;;;;3.28;1.42;;;5.80;99.90;;;;;;4968610;28;20034;-75
2023/03/02 04:32:42;;;;;;;3.10;1.52;;;5.70;99.90;;;;;;4974514;28;20026;-75
2023/03/02 04:35:09;;;;;;;3.83;1.73;;;5.70;99.90;;;;;;4972209;28;20126;-75
2023/03/02 04:37:35;;;;;;;5.43;2.55;;;5.80;99.90;;;;;;4970742;28;20414;-76
2023/03/02 04:40:01;;;;;;;7.90;4.10;;;5.90;99.90;;;;;;4971951;28;20085;-76
2023/03/02 04:42:26;;;;;;;6.93;3.80;;;5.90;99.90;;;;;;4974912;28;20389;-79
2023/03/02 04:44:52;;;;;;;8.02;4.47;;;5.90;99.90;;;;;;4975945;28;20031;-74
2023/03/02 04:47:18;;;;;;;6.65;3.17;;;6.00;99.90;;;;;;4982824;28;20080;-74
2023/03/02 04:49:43;;;;;;;3.55;1.77;;;6.00;99.90;;;;;;4968682;28;20124;-74
2023/03/02 04:52:09;;;;;;;4.07;1.77;;;5.80;99.90;;;;;;4978898;28;20524;-75
2023/03/02 04:54:35;;;;;;;3.13;1.63;;;5.80;99.90;;;;;;4967337;28;20085;-74
2023/03/02 04:57:00;;;;;;;3.60;1.48;;;5.90;99.90;;;;;;4972063;28;20077;-75
2023/03/02 04:59:27;;;;;;;3.13;1.77;;;5.70;99.90;;;;;;4967862;28;20085;-75
2023/03/02 05:01:57;;;;;;;2.92;1.65;;;5.60;99.90;;;;;;4975885;28;20031;-75
2023/03/02 05:04:23;;;;;;;3.90;1.80;;;5.50;99.90;;;;;;4965136;28;20436;-75
2023/03/02 05:06:49;;;;;;;4.93;2.30;;;5.70;99.90;;;;;;4977145;28;20030;-74
2023/03/02 05:09:15;;;;;;;5.10;2.13;;;5.80;99.90;;;;;;4970853;28;20515;-75
2023/03/02 05:11:40;;;;;;;3.22;1.60;;;5.90;99.90;;;;;;4964898;28;20029;-76
2023/03/02 05:14:09;;;;;;;2.92;1.65;;;5.90;99.90;;;;;;4969876;28;20077;-76
2023/03/02 05:16:37;;;;;;;3.35;1.67;;;6.00;99.90;;;;;;4976499;28;20034;-74
2023/03/02 05:19:04;;;;;;;3.22;1.52;;;6.00;99.90;;;;;;4978752;28;20035;-75
2023/03/02 05:21:30;;;;;;;2.92;1.73;;;5.90;99.90;;;;;;4968792;28;20034;-78
2023/03/02 05:23:56;;;;;;;4.63;1.63;;;5.90;99.90;;;;;;4971571;28;20031;-75
2023/03/02 05:26:22;;;;;;;4.22;2.03;;;6.00;99.90;;;;;;4972869;28;20061;-75
2023/03/02 05:28:48;;;;;;;6.05;2.60;;;6.10;99.90;;;;;;4965164;28;20038;-74
2023/03/02 05:31:20;;;;;;;4.63;1.67;;;6.10;99.90;;;;;;4965212;28;20037;-78
2023/03/02 05:33:46;;;;;;;6.05;3.05;;;6.10;99.90;;;;;;4971010;28;20448;-74
2023/03/02 05:36:12;;;;;;;5.32;2.40;;;6.10;99.90;;;;;;4969195;28;20089;-75
2023/03/02 05:38:37;;;;;;;4.68;2.45;;;6.00;99.90;;;;;;4967646;28;20030;-77
2023/03/02 05:41:03;;;;;;;4.97;2.83;;;5.90;99.90;;;;;;4971345;28;20034;-75
2023/03/02 05:43:29;;;;;;;4.28;2.72;;;5.90;99.90;;;;;;4968058;28;20096;-76
2023/03/02 05:45:59;;;;;;;5.47;2.72;;;6.00;99.90;;;;;;4971383;28;20424;-75
2023/03/02 05:48:26;;;;;;;5.00;3.10;;;6.10;99.90;;;;;;4964095;28;20027;-77
2023/03/02 05:50:52;;;;;;;4.65;2.35;;;6.10;99.90;;;;;;4964381;28;20034;-75
2023/03/02 05:53:17;;;;;;;5.75;3.17;;;5.90;99.90;;;;;;4963864;28;20373;-75
2023/03/02 05:55:43;;;;;;;4.65;2.30;;;6.00;99.90;;;;;;4970916;28;20030;-76
2023/03/02 05:58:13;;;;;;;5.47;2.58;;;6.10;99.90;;;;;;4966641;28;20134;-74
2023/03/02 06:00:39;;;;;;;5.25;2.65;;;6.20;99.90;;;;;;4972488;28;20030;-74
2023/03/02 06:03:05;;;;;;;6.50;2.35;;;6.10;99.90;;;;;;4977416;28;20085;-74
2023/03/02 06:05:31;;;;;;;4.60;2.22;;;6.00;99.90;;;;;;4968014;28;20492;-75
2023/03/02 06:07:56;;;;;;;4.68;2.40;;;6.00;99.90;;;;;;4964393;28;20286;-76
2023/03/02 06:10:22;;;;;;;6.43;2.67;;;6.10;99.90;;;;;;4968566;28;20686;-75
2023/03/02 06:12:48;;;;;;;6.63;3.65;;;6.10;99.90;;;;;;4969122;28;20039;-78
2023/03/02 06:15:14;;;;;;;5.55;3.15;;;6.00;99.90;;;;;;4972821;28;20030;-75
2023/03/02 06:17:40;;;;;;;6.47;3.88;;;6.10;99.90;;;;;;4968060;28;20481;-74
2023/03/02 06:20:09;;;;;;;7.03;3.88;;;6.00;99.90;;;;;;4964687;28;20503;-75
2023/03/02 06:22:45;;;;;;;6.35;3.65;;;6.00;99.90;;;;;;4984987;28;20905;-76
2023/03/02 06:25:14;;;;;;;6.68;3.10;;;5.90;99.90;;;;;;4974418;28;20105;-73
2023/03/02 06:27:40;;;;;;;5.88;2.50;;;5.90;99.90;;;;;;4969053;28;20030;-73
2023/03/02 06:30:09;;;;;;;4.88;2.78;;;5.80;99.90;;;;;;4986903;28;20011;-79
2023/03/02 06:32:35;;;;;;;6.03;3.42;;;5.80;99.90;;;;;;4982044;28;20038;-79
2023/03/02 06:35:02;;;;;;;5.30;3.55;;;6.00;99.90;;;;;;4972376;28;20100;-82
2023/03/02 06:37:29;;;;;;;4.68;2.75;;;6.00;99.90;;;;;;4970317;28;20102;-76
2023/03/02 06:39:55;;;;;;;7.75;2.95;;;6.20;99.90;;;;;;4973605;28;20032;-77
2023/03/02 06:42:22;;;;;;;6.20;3.35;;;6.80;99.90;;;;;;4974630;28;20036;-76
2023/03/02 06:44:48;;;;;;;10.40;4.35;;;6.40;99.90;;;;;;4976451;28;20038;-76
2023/03/02 06:47:14;;;;;;;9.15;4.35;;;6.20;99.90;;;;;;4972780;28;20035;-75
2023/03/02 06:49:39;;;;;;;6.63;4.20;;;6.10;99.90;;;;;;4976439;28;20062;-77
2023/03/02 06:52:06;;;;;;;5.43;2.95;;;6.20;99.90;;;;;;4972857;28;20027;-75
2023/03/02 06:54:32;;;;;;;6.32;3.55;;;6.20;99.90;;;;;;4972573;28;20060;-77
2023/03/02 06:56:58;;;;;;;7.80;4.50;;;6.10;99.90;;;;;;4976127;28;20444;-76
2023/03/02 06:59:24;;;;;;;8.57;4.90;;;6.10;99.90;;;;;;4977305;28;20046;-75
2023/03/02 07:01:50;;;;;;;7.60;4.45;;;6.10;99.90;;;;;;4978683;28;26522;-75
2023/03/02 07:04:16;;;;;;;7.50;3.72;;;6.10;99.90;;;;;;4967650;28;20038;-74
2023/03/02 07:06:42;;;;;;;8.55;4.65;;;6.10;99.90;;;;;;4971517;28;20297;-77
2023/03/02 07:09:08;;;;;;;10.30;5.20;;;6.20;99.90;;;;;;4970831;28;20484;-76
2023/03/02 07:11:34;;;;;;;8.80;4.93;;;6.30;99.90;;;;;;4968933;28;20031;-75
2023/03/02 07:14:00;;;;;;;10.10;5.28;;;6.30;99.90;;;;;;4974898;28;20608;-74
2023/03/02 07:16:26;;;;;;;8.57;4.95;;;6.30;99.90;;;;;;4980536;28;20058;-76
2023/03/02 07:18:51;;;;;;;12.85;6.63;;;6.40;99.90;;;;;;4969806;28;20031;-74
2023/03/02 07:21:17;;;;;;;13.25;6.60;;;6.40;99.90;;;;;;4977690;28;20037;-75
2023/03/02 07:23:43;;;;;;;13.93;7.60;;;6.30;99.90;;;;;;4977342;28;20043;-77
2023/03/02 07:26:09;;;;;;;12.23;7.53;;;6.20;99.90;;;;;;4975306;28;20049;-75
2023/03/02 07:28:38;;;;;;;12.35;7.95;;;6.30;99.90;;;;;;4983265;28;20113;-76
2023/03/02 07:31:04;;;;;;;14.73;7.10;;;6.30;99.90;;;;;;4973220;28;20045;-75
2023/03/02 07:33:30;;;;;;;10.57;6.90;;;6.30;99.90;;;;;;4977545;28;20066;-74
2023/03/02 07:35:56;;;;;;;9.38;5.38;;;6.40;99.90;;;;;;4977749;28;20559;-75
2023/03/02 07:38:22;;;;;;;12.48;6.60;;;6.50;99.90;;;;;;4978993;28;20030;-76
2023/03/02 07:40:48;;;;;;;15.30;8.90;;;6.50;99.90;;;;;;4970560;28;20026;-75
2023/03/02 07:43:14;;;;;;;12.82;7.57;;;6.50;99.90;;;;;;4974064;28;20053;-75
2023/03/02 07:45:40;;;;;;;13.20;7.05;;;6.50;99.90;;;;;;4976024;28;20036;-76
2023/03/02 07:48:06;;;;;;;13.68;7.35;;;6.60;99.90;;;;;;4971894;28;20377;-76
2023/03/02 07:50:32;;;;;;;14.52;8.65;;;6.60;99.90;;;;;;4973603;28;20061;-74
2023/03/02 07:52:58;;;;;;;12.95;7.53;;;6.60;99.90;;;;;;4966044;28;20042;-77
2023/03/02 07:55:24;;;;;;;15.02;8.00;;;6.60;99.90;;;;;;4981497;28;20030;-75
2023/03/02 07:57:50;;;;;;;12.60;8.05;;;6.70;99.90;;;;;;4971987;28;20053;-78
2023/03/02 08:00:16;;;;;;;11.93;8.05;;;6.60;99.90;;;;;;4977286;28;20042;-79
2023/03/02 08:02:42;;;;;;;14.20;8.18;;;6.60;99.90;;;;;;4973128;28;20142;-77
2023/03/02 08:05:10;;;;;;;14.20;8.20;;;6.70;99.90;;;;;;4971732;28;20037;-78
2023/03/02 08:07:35;;;;;;;13.43;9.15;;;6.70;99.90;;;;;;4971709;28;20096;-76
2023/03/02 08:10:01;;;;;;;13.77;8.77;;;6.80;99.90;;;;;;4976376;28;20034;-77
2023/03/02 08:12:27;;;;;;;21.60;11.85;;;6.80;99.90;;;;;;4971986;28;20022;-77
2023/03/02 08:14:53;;;;;;;18.58;10.70;;;6.80;99.90;;;;;;4976533;28;20050;-76
2023/03/02 08:17:19;;;;;;;16.85;9.82;;;6.70;99.90;;;;;;4978168;28;20037;-83
2023/03/02 08:19:46;;;;;;;20.08;10.98;;;6.70;99.90;;;;;;4981737;28;20035;-77
2023/03/02 08:22:11;;;;;;;25.52;16.10;;;6.80;99.90;;;;;;4976137;28;20041;-80
2023/03/02 08:24:39;;;;;;;26.35;15.75;;;6.80;99.90;;;;;;4972265;28;20031;-84
2023/03/02 08:27:05;;;;;;;21.00;13.70;;;6.80;99.90;;;;;;4971565;28;20039;-76
2023/03/02 08:29:31;;;;;;;24.63;14.18;;;6.80;99.90;;;;;;4970421;28;20030;-76
2023/03/02 08:31:57;;;;;;;18.27;12.18;;;6.70;99.90;;;;;;4976864;28;20995;-84
2023/03/02 08:34:24;;;;;;;20.95;11.60;;;6.70;99.90;;;;;;4979042;28;20116;-75
2023/03/02 08:36:49;;;;;;;18.40;9.75;;;6.70;99.90;;;;;;4973794;28;20023;-76
2023/03/02 08:39:15;;;;;;;17.00;10.75;;;6.80;99.90;;;;;;4969736;28;20033;-78
2023/03/02 08:41:41;;;;;;;22.50;13.30;;;7.00;99.90;;;;;;4967684;28;20037;-77
2023/03/02 08:44:07;;;;;;;24.55;13.45;;;7.10;99.90;;;;;;4973009;28;20739;-75
2023/03/02 08:46:33;;;;;;;20.83;13.38;;;7.20;99.90;;;;;;4974186;28;20117;-77
2023/03/02 08:48:59;;;;;;;23.38;14.60;;;7.20;99.90;;;;;;4974545;28;20113;-79
2023/03/02 08:51:25;;;;;;;25.85;14.35;;;7.20;99.90;;;;;;4972223;28;20033;-76
2023/03/02 08:53:54;;;;;;;28.77;15.38;;;7.20;99.90;;;;;;4981892;28;20042;-76
2023/03/02 08:56:30;;;;;;;27.08;14.77;;;7.20;99.90;;;;;;4976463;28;20082;-76
2023/03/02 08:58:58;;;;;;;25.42;14.32;;;7.00;99.90;;;;;;4977282;28;20413;-76
2023/03/02 09:01:27;;;;;;;23.50;14.13;;;7.00;99.90;;;;;;4986661;28;20041;-76
2023/03/02 09:03:53;;;;;;;31.08;17.35;;;7.10;99.90;;;;;;4975306;28;20038;-81
2023/03/02 09:06:19;;;;;;;34.28;18.38;;;7.10;99.90;;;;;;4984666;28;20035;-76
2023/03/02 09:08:45;;;;;;;38.50;21.17;;;7.20;99.90;;;;;;4968453;28;20077;-77
2023/03/02 09:11:11;;;;;;;29.95;17.83;;;7.20;99.90;;;;;;4969458;28;20497;-77
2023/03/02 09:13:37;;;;;;;33.00;16.35;;;7.10;99.90;;;;;;4970892;28;20042;-77
2023/03/02 09:16:03;;;;;;;28.33;15.60;;;7.20;99.90;;;;;;4976222;28;20031;-76
2023/03/02 09:18:29;;;;;;;22.48;13.15;;;7.10;99.90;;;;;;4979804;28;20515;-75
2023/03/02 09:20:56;;;;;;;31.73;15.60;;;7.40;99.90;;;;;;4980905;28;20508;-77
2023/03/02 09:23:24;;;;;;;24.52;13.20;;;7.70;99.90;;;;;;4973632;28;20062;-77
2023/03/02 09:25:51;;;;;;;27.38;15.40;;;7.50;99.90;;;;;;4975763;28;20092;-78
2023/03/02 09:28:17;;;;;;;22.70;13.55;;;7.40;99.90;;;;;;4974963;28;20027;-78
2023/03/02 09:30:51;;;;;;;24.15;14.20;;;7.40;99.90;;;;;;4992224;28;20040;-79
2023/03/02 09:33:17;;;;;;;23.38;13.95;;;7.40;99.90;;;;;;4982706;28;20045;-76
2023/03/02 09:35:44;;;;;;;24.80;15.02;;;7.40;99.90;;;;;;4979946;28;20113;-76
2023/03/02 09:38:15;;;;;;;24.77;14.32;;;7.40;99.90;;;;;;4978941;28;20023;-76
2023/03/02 09:41:06;;;;;;;22.08;14.85;;;7.40;99.90;;;;;;4976225;28;20125;-77
2023/03/02 09:43:50;;;;;;;21.23;13.00;;;7.50;99.90;;;;;;4974451;28;20038;-76
2023/03/02 09:46:53;;;;;;;24.63;13.90;;;7.60;99.90;;;;;;4975012;28;20026;-79
2023/03/02 09:49:52;;;;;;;21.48;13.43;;;7.50;99.90;;;;;;4967262;28;20026;-76
2023/03/02 09:52:39;;;;;;;23.40;10.93;;;7.50;99.90;;;;;;4974994;28;20178;-76
2023/03/02 09:55:24;;;;;;;17.00;10.98;;;7.50;99.90;;;;;;4985109;28;20114;-76
2023/03/02 09:57:49;;;;;;;17.25;11.45;;;7.60;99.90;;;;;;4976548;28;20653;-83
2023/03/02 10:00:31;;;;;;;19.15;12.32;;;7.70;99.90;;;;;;4971543;28;20500;-76
2023/03/02 10:03:00;;;;;;;23.33;13.15;;;7.70;99.90;;;;;;4975413;28;20420;-80
2023/03/02 10:05:36;;;;;;;23.20;13.23;;;7.70;99.90;;;;;;4977426;28;20065;-76
2023/03/02 10:08:02;;;;;;;27.25;13.65;;;7.70;99.90;;;;;;4978797;28;20030;-76
2023/03/02 10:11:20;;;;;;;24.13;14.40;;;7.60;99.90;;;;;;4982861;28;20384;-75
2023/03/02 10:13:58;;;;;;;19.20;12.05;;;7.50;99.90;;;;;;4965032;28;20051;-76
2023/03/02 10:16:33;;;;;;;25.70;15.32;;;7.70;99.90;;;;;;4973543;28;20031;-76
2023/03/02 10:19:14;;;;;;;24.15;14.38;;;7.80;99.90;;;;;;4967351;28;20037;-77
2023/03/02 10:21:49;;;;;;;26.35;14.73;;;7.80;99.90;;;;;;4975071;28;20116;-81
2023/03/02 10:24:33;;;;;;;26.92;17.17;;;7.70;99.90;;;;;;4967479;28;20062;-76
2023/03/02 10:27:16;;;;;;;30.70;16.85;;;7.70;99.90;;;;;;4971447;28;20691;-77
2023/03/02 10:30:01;;;;;;;26.85;16.10;;;7.70;99.90;;;;;;4972566;28;20045;-76
2023/03/02 10:32:34;;;;;;;25.67;15.57;;;7.60;99.90;;;;;;4971860;28;20591;-76
2023/03/02 10:35:10;;;;;;;28.25;15.18;;;7.60;99.90;;;;;;4967465;28;20146;-80
2023/03/02 10:37:35;;;;;;;23.25;15.25;;;7.70;99.90;;;;;;4975550;28;20039;-75
2023/03/02 10:40:01;;;;;;;21.95;14.00;;;7.80;99.90;;;;;;4975922;28;20089;-75
2023/03/02 10:42:39;;;;;;;26.55;15.68;;;7.80;99.90;;;;;;4974113;28;20412;-76
2023/03/02 10:45:17;;;;;;;27.35;15.60;;;8.00;99.90;;;;;;4970016;28;20113;-76
2023/03/02 10:47:43;;;;;;;26.10;16.30;;;8.00;99.90;;;;;;4968043;28;20452;-75
2023/03/02 10:50:22;;;;;;;23.70;14.52;;;8.00;99.90;;;;;;4977225;28;20030;-77
2023/03/02 10:52:49;;;;;;;22.45;14.25;;;7.90;99.90;;;;;;4968784;28;20053;-77
2023/03/02 10:55:15;;;;;;;20.92;12.98;;;8.00;99.90;;;;;;4979850;28;20026;-77
2023/03/02 10:57:42;;;;;;;24.48;12.32;;;8.00;99.90;;;;;;4966083;28;20175;-78
2023/03/02 11:00:27;;;;;;;18.40;11.85;;;8.20;99.90;;;;;;4984486;28;20058;-78
2023/03/02 11:03:00;;;;;;;18.05;11.18;;;8.40;99.90;;;;;;4972340;28;20041;-77
2023/03/02 11:05:33;;;;;;;17.73;11.77;;;8.50;99.90;;;;;;4970040;28;20027;-77
2023/03/02 11:08:01;;;;;;;21.35;13.30;;;8.60;99.90;;;;;;4966627;28;20026;-75
2023/03/02 11:10:31;;;;;;;21.52;12.20;;;8.60;99.90;;;;;;4965638;28;20114;-77
2023/03/02 11:12:58;;;;;;;18.92;12.45;;;8.60;99.90;;;;;;4972588;28;20054;-77
2023/03/02 11:15:43;;;;;;;20.00;12.90;;;8.50;99.90;;;;;;4967101;28;20034;-77
2023/03/02 11:18:27;;;;;;;22.45;12.48;;;8.60;99.90;;;;;;4970083;28;20507;-78
2023/03/02 11:21:06;;;;;;;19.85;11.68;;;8.60;99.90;;;;;;4967316;28;20093;-77
2023/03/02 11:23:57;;;;;;;17.63;11.10;;;8.70;99.90;;;;;;4973837;28;20030;-77
2023/03/02 11:26:25;;;;;;;20.20;12.15;;;8.80;99.90;;;;;;4965987;28;20031;-77
2023/03/02 11:29:10;;;;;;;29.90;23.83;;;9.00;99.90;;;;;;4974769;28;20034;-77
2023/03/02 11:31:45;;;;;;;18.85;13.10;;;9.10;99.90;;;;;;4965806;28;20039;-84
2023/03/02 11:34:19;;;;;;;25.98;15.10;;;9.20;99.90;;;;;;4967411;28;20086;-77
2023/03/02 11:36:56;;;;;;;;;;;9.10;99.90;;;;;;4971648;28;20049;-77
2023/03/02 11:39:31;;;;;;;40.50;26.42;;;9.20;99.90;;;;;;4974450;28;19952;-84
2023/03/02 11:41:56;;;;;;;51.08;31.40;;;9.20;99.90;;;;;;4972300;28;20030;-77
2023/03/02 11:44:23;;;;;;;32.35;20.52;;;9.10;99.90;;;;;;4966278;28;20105;-78
2023/03/02 11:46:56;;;;;;;21.30;13.65;;;9.20;99.90;;;;;;4967557;28;20085;-80
2023/03/02 11:49:29;;;;;;;24.38;13.75;;;9.20;99.90;;;;;;4969621;28;20035;-77
2023/03/02 11:51:58;;;;;;;19.95;11.70;;;9.00;99.90;;;;;;4968789;28;20041;-79
2023/03/02 11:54:35;;;;;;;18.20;11.10;;;8.90;99.90;;;;;;4969822;28;20082;-78
2023/03/02 11:57:01;;;;;;;17.52;10.98;;;8.80;99.90;;;;;;4972441;28;20065;-78
2023/03/02 11:59:28;;;;;;;17.27;10.52;;;8.90;99.90;;;;;;4975135;28;20038;-78
2023/03/02 12:01:55;;;;;;;22.45;11.20;;;9.10;99.90;;;;;;4966509;28;20786;-77
2023/03/02 12:04:27;;;;;;;18.13;10.70;;;9.40;99.90;;;;;;4966967;28;20097;-78
2023/03/02 12:06:53;;;;;;;14.68;9.95;;;9.70;99.90;;;;;;4976416;28;20030;-78
2023/03/02 12:09:22;;;;;;;16.98;10.88;;;9.90;99.90;;;;;;4967977;28;20027;-77
2023/03/02 12:11:56;;;;;;;15.80;10.13;;;10.10;99.90;;;;;;4969160;28;20022;-87
2023/03/02 12:14:39;;;;;;;15.25;9.63;;;10.10;99.90;;;;;;4974782;28;20039;-78
2023/03/02 12:17:26;;;;;;;13.75;9.80;;;10.00;99.90;;;;;;4969372;28;21046;-78
2023/03/02 12:20:06;;;;;;;18.70;10.30;;;9.80;99.90;;;;;;4968636;28;20049;-78
2023/03/02 12:22:33;;;;;;;22.35;9.73;;;9.80;99.90;;;;;;4971546;28;20034;-78
2023/03/02 12:25:24;;;;;;;19.38;10.52;;;9.90;99.90;;;;;;4977027;28;20031;-78
2023/03/02 12:27:52;;;;;;;17.00;9.98;;;10.00;99.90;;;;;;4971588;28;20042;-77
2023/03/02 12:30:22;;;;;;;16.42;10.25;;;10.00;99.90;;;;;;4970705;28;20060;-78
2023/03/02 12:33:17;;;;;;;20.42;10.65;;;10.10;99.90;;;;;;4975840;28;20503;-78
2023/03/02 12:35:43;;;;;;;17.08;10.23;;;10.00;99.90;;;;;;4961054;28;20648;-79
2023/03/02 12:38:30;;;;;;;17.83;10.50;;;9.90;99.90;;;;;;4970346;28;20441;-79
2023/03/02 12:41:01;;;;;;;18.20;11.95;;;9.70;99.90;;;;;;4970873;28;20034;-78
2023/03/02 12:43:27;;;;;;;16.20;9.80;;;9.70;99.90;;;;;;4993451;28;20030;-88
2023/03/02 12:46:26;;;;;;;19.17;9.80;;;9.90;99.90;;;;;;4986557;28;20038;-77
2023/03/02 12:49:21;;;;;;;20.52;10.05;;;9.80;99.90;;;;;;4973965;28;20117;-78
2023/03/02 12:51:59;;;;;;;14.70;8.70;;;9.90;99.90;;;;;;4971481;28;20046;-78
2023/03/02 12:54:34;;;;;;;15.18;9.73;;;9.80;99.90;;;;;;4968299;28;20049;-77
2023/03/02 12:57:14;;;;;;;15.43;8.75;;;9.70;99.90;;;;;;4975442;28;20454;-74
2023/03/02 12:59:40;;;;;;;12.90;9.05;;;9.70;99.90;;;;;;4967578;28;20105;-78
2023/03/02 13:02:16;;;;;;;13.32;8.48;;;9.70;99.90;;;;;;4966755;28;20035;-77